Time;durP1;ratioP1;P1;durP2;ratioP2;P2;SDS_P1;SDS_P2;PMS_P1;PMS_P2;Temp;Humidity;BMP_temperature;BMP_pressure;BME280_temperature;BME280_humidity;BME280_pressure;Samples;Min_cycle;Max_cycle;Signal;HPM_P1;HPM_P2
2023/07/27 00:00:57;;;;;;;3.65;2.88;;;15.20;99.90;;;;;;5072235;28;20781;-60
2023/07/27 00:03:25;;;;;;;4.47;3.53;;;15.20;99.90;;;;;;5072689;28;20205;-59
2023/07/27 00:05:53;;;;;;;9.50;3.38;;;15.20;99.90;;;;;;5072139;28;20193;-59
2023/07/27 00:08:20;;;;;;;5.97;3.30;;;15.20;99.90;;;;;;5072507;28;20239;-59
2023/07/27 00:10:48;;;;;;;6.75;3.47;;;15.20;99.90;;;;;;5071676;28;20248;-57
2023/07/27 00:13:18;;;;;;;7.55;3.00;;;15.30;99.90;;;;;;5072420;28;20229;-59
2023/07/27 00:15:46;;;;;;;3.67;2.72;;;15.30;99.90;;;;;;5072182;28;20259;-59
2023/07/27 00:18:14;;;;;;;4.80;3.10;;;15.30;99.90;;;;;;5072328;28;20285;-59
2023/07/27 00:20:42;;;;;;;6.00;2.90;;;15.30;99.90;;;;;;5071808;28;20671;-60
2023/07/27 00:23:10;;;;;;;3.30;2.97;;;15.30;99.90;;;;;;5072149;28;20673;-60
2023/07/27 00:25:37;;;;;;;3.67;2.90;;;15.20;99.90;;;;;;5071524;28;20236;-60
2023/07/27 00:28:05;;;;;;;3.35;3.13;;;15.20;99.90;;;;;;5072033;28;20719;-60
2023/07/27 00:30:34;;;;;;;5.75;3.13;;;15.20;99.90;;;;;;5071660;28;20299;-61
2023/07/27 00:33:02;;;;;;;6.82;3.03;;;15.30;99.90;;;;;;5072057;28;20285;-60
2023/07/27 00:35:30;;;;;;;3.90;2.85;;;15.20;99.90;;;;;;5071617;28;20207;-60
2023/07/27 00:37:58;;;;;;;5.10;3.60;;;15.20;99.90;;;;;;5071880;28;20202;-60
2023/07/27 00:40:26;;;;;;;4.40;3.25;;;15.20;99.90;;;;;;5071597;28;20248;-60
2023/07/27 00:42:54;;;;;;;4.25;3.25;;;15.20;99.90;;;;;;5072004;28;20202;-61
2023/07/27 00:45:22;;;;;;;4.95;2.85;;;15.30;99.90;;;;;;5071466;28;20772;-60
2023/07/27 00:47:51;;;;;;;4.25;2.83;;;15.30;99.90;;;;;;5072031;28;20209;-60
2023/07/27 00:50:19;;;;;;;5.03;2.80;;;15.30;99.90;;;;;;5071364;28;20201;-61
2023/07/27 00:52:47;;;;;;;6.10;3.13;;;15.30;99.90;;;;;;5071744;28;20618;-60
2023/07/27 00:55:15;;;;;;;6.57;2.83;;;15.30;99.90;;;;;;5071098;28;20755;-60
2023/07/27 00:57:43;;;;;;;3.67;3.38;;;15.30;99.90;;;;;;5071637;28;20236;-61
2023/07/27 01:00:12;;;;;;;3.38;3.08;;;15.30;99.90;;;;;;5071415;28;20700;-60
2023/07/27 01:02:40;;;;;;;3.90;3.58;;;15.30;99.90;;;;;;5071571;28;20201;-61
2023/07/27 01:05:10;;;;;;;4.20;3.38;;;15.30;99.90;;;;;;5071246;28;20201;-60
2023/07/27 01:07:38;;;;;;;3.58;3.22;;;15.30;99.90;;;;;;5071618;28;20284;-60
2023/07/27 01:10:06;;;;;;;5.63;3.65;;;15.30;99.90;;;;;;5071073;28;20197;-60
2023/07/27 01:12:37;;;;;;;3.28;2.85;;;15.30;99.90;;;;;;5071578;28;20292;-60
2023/07/27 01:15:07;;;;;;;3.55;3.22;;;15.30;99.90;;;;;;5071093;28;20201;-60
2023/07/27 01:17:40;;;;;;;4.18;3.50;;;15.30;99.90;;;;;;5071352;28;20197;-60
2023/07/27 01:20:16;;;;;;;4.95;3.63;;;15.20;99.90;;;;;;5071108;28;20648;-60
2023/07/27 01:22:55;;;;;;;8.73;3.60;;;15.20;99.90;;;;;;5065520;28;20632;-60
2023/07/27 01:25:50;;;;;;;4.93;3.15;;;15.20;99.90;;;;;;5071064;28;20283;-60
2023/07/27 01:28:24;;;;;;;6.22;3.53;;;15.20;99.90;;;;;;5036544;28;20233;-60
2023/07/27 01:30:54;;;;;;;5.82;3.08;;;15.20;99.90;;;;;;5070629;28;20662;-60
2023/07/27 01:33:25;;;;;;;5.95;3.55;;;15.20;99.90;;;;;;5070791;28;20263;-61
2023/07/27 01:35:56;;;;;;;5.40;3.45;;;15.20;99.90;;;;;;5070403;28;20220;-60
2023/07/27 01:38:24;;;;;;;5.00;3.63;;;15.20;99.90;;;;;;5070995;28;20288;-61
2023/07/27 01:40:52;;;;;;;4.80;2.80;;;15.20;99.90;;;;;;5070851;28;20648;-61
2023/07/27 01:43:20;;;;;;;6.72;3.15;;;15.20;99.90;;;;;;5071303;28;20296;-60
2023/07/27 01:45:48;;;;;;;7.93;3.30;;;15.20;99.90;;;;;;5070858;28;20225;-60
2023/07/27 01:48:17;;;;;;;8.40;3.45;;;15.20;99.90;;;;;;5071227;28;20284;-61
2023/07/27 01:50:45;;;;;;;3.67;3.15;;;15.20;99.90;;;;;;5070763;28;20221;-60
2023/07/27 01:53:13;;;;;;;4.57;3.28;;;15.20;99.90;;;;;;5071074;28;20240;-60
2023/07/27 01:55:41;;;;;;;3.22;3.00;;;15.20;99.90;;;;;;5070905;28;20308;-60
2023/07/27 01:58:08;;;;;;;4.90;3.08;;;15.20;99.90;;;;;;5071186;28;20236;-60
2023/07/27 02:00:36;;;;;;;3.90;3.13;;;15.20;99.90;;;;;;5070678;28;20224;-60
2023/07/27 02:03:04;;;;;;;7.53;3.30;;;15.20;99.90;;;;;;5071029;28;20240;-61
2023/07/27 02:05:34;;;;;;;3.55;3.17;;;15.20;99.90;;;;;;5070628;28;20194;-60
2023/07/27 02:08:02;;;;;;;4.30;3.63;;;15.20;99.90;;;;;;5071159;28;20324;-60
2023/07/27 02:10:30;;;;;;;5.60;3.10;;;15.20;99.90;;;;;;5070608;28;20660;-61
2023/07/27 02:12:59;;;;;;;5.10;3.55;;;15.20;99.90;;;;;;5071183;28;20237;-60
2023/07/27 02:15:30;;;;;;;5.97;3.20;;;15.20;99.90;;;;;;5070404;28;20232;-60
2023/07/27 02:18:02;;;;;;;9.05;3.85;;;15.20;99.90;;;;;;5070935;28;20229;-60
2023/07/27 02:20:31;;;;;;;4.63;3.05;;;15.20;99.90;;;;;;5070853;28;20225;-60
2023/07/27 02:23:00;;;;;;;6.18;3.30;;;15.20;99.90;;;;;;5074002;28;20255;-61
2023/07/27 02:25:28;;;;;;;5.00;3.42;;;15.20;99.90;;;;;;5073961;28;20627;-60
2023/07/27 02:27:56;;;;;;;3.10;2.90;;;15.20;99.90;;;;;;5074323;28;20224;-60
2023/07/27 02:30:24;;;;;;;3.95;3.45;;;15.20;99.90;;;;;;5073959;28;20252;-61
2023/07/27 02:32:52;;;;;;;5.20;3.97;;;15.20;99.90;;;;;;5074406;28;20233;-59
2023/07/27 02:35:20;;;;;;;11.05;4.18;;;15.20;99.90;;;;;;5073847;28;20684;-60
2023/07/27 02:37:48;;;;;;;3.92;3.25;;;15.20;99.90;;;;;;5074020;28;20240;-61
2023/07/27 02:40:18;;;;;;;7.28;3.40;;;15.30;99.90;;;;;;5074308;28;20625;-58
2023/07/27 02:42:47;;;;;;;5.05;3.05;;;15.30;99.90;;;;;;5073750;28;20212;-59
2023/07/27 02:45:15;;;;;;;6.97;3.22;;;15.30;99.90;;;;;;5074045;28;20326;-59
2023/07/27 02:47:43;;;;;;;3.72;3.13;;;15.30;99.90;;;;;;5073994;28;20224;-58
2023/07/27 02:50:11;;;;;;;4.85;3.40;;;15.30;99.90;;;;;;5074194;28;20204;-59
2023/07/27 02:52:39;;;;;;;9.32;4.07;;;15.30;99.90;;;;;;5076162;28;20246;-60
2023/07/27 02:55:07;;;;;;;6.20;3.67;;;15.30;99.90;;;;;;5076404;28;20835;-59
2023/07/27 02:57:36;;;;;;;4.00;3.53;;;15.30;99.90;;;;;;5073499;28;20201;-59
2023/07/27 03:00:08;;;;;;;4.70;3.33;;;15.30;99.90;;;;;;5073650;28;20582;-60
2023/07/27 03:02:36;;;;;;;4.90;3.92;;;15.30;99.90;;;;;;5073158;28;20253;-59
2023/07/27 03:05:05;;;;;;;6.18;4.28;;;15.30;99.90;;;;;;5073362;28;20232;-59
2023/07/27 03:07:33;;;;;;;3.85;3.53;;;15.30;99.90;;;;;;5073456;28;20224;-60
2023/07/27 03:10:01;;;;;;;6.70;3.30;;;15.30;99.90;;;;;;5073588;28;20281;-59
2023/07/27 03:12:29;;;;;;;5.30;3.47;;;15.40;99.90;;;;;;5073508;28;20281;-60
2023/07/27 03:14:58;;;;;;;6.20;3.60;;;15.30;99.90;;;;;;5073392;28;20284;-59
2023/07/27 03:17:26;;;;;;;5.13;3.90;;;15.40;99.90;;;;;;5073312;28;20236;-58
2023/07/27 03:19:54;;;;;;;6.07;3.33;;;15.40;99.90;;;;;;5073411;28;20205;-59
2023/07/27 03:22:22;;;;;;;4.50;3.38;;;15.40;99.90;;;;;;5072812;28;20309;-58
2023/07/27 03:24:50;;;;;;;3.78;3.47;;;15.40;99.90;;;;;;5074009;28;20288;-59
2023/07/27 03:27:18;;;;;;;3.60;3.30;;;15.40;99.90;;;;;;5073044;28;20205;-59
2023/07/27 03:29:46;;;;;;;5.68;3.35;;;15.40;99.90;;;;;;5073213;28;20219;-57
2023/07/27 03:32:15;;;;;;;6.43;3.95;;;15.40;99.90;;;;;;5072672;28;20267;-60
2023/07/27 03:34:44;;;;;;;3.90;3.40;;;15.40;99.90;;;;;;5071850;28;20237;-59
2023/07/27 03:37:12;;;;;;;7.53;3.72;;;15.50;99.90;;;;;;5072782;28;20209;-60
2023/07/27 03:39:40;;;;;;;10.27;3.58;;;15.50;99.90;;;;;;5072982;28;20232;-60
2023/07/27 03:42:08;;;;;;;4.07;3.58;;;15.50;99.90;;;;;;5072573;28;20316;-60
2023/07/27 03:44:36;;;;;;;5.90;3.25;;;15.50;99.90;;;;;;5072736;28;20631;-59
2023/07/27 03:47:04;;;;;;;8.20;3.88;;;15.50;99.90;;;;;;5073895;28;20240;-58
2023/07/27 03:49:34;;;;;;;6.13;3.53;;;15.50;99.90;;;;;;5072499;28;20713;-59
2023/07/27 03:52:02;;;;;;;4.47;3.45;;;15.50;99.90;;;;;;5072622;28;20213;-58
2023/07/27 03:54:29;;;;;;;4.22;3.83;;;15.60;99.90;;;;;;5072466;28;20711;-60
2023/07/27 03:56:57;;;;;;;5.20;3.45;;;15.50;99.90;;;;;;5072488;28;20284;-60
2023/07/27 03:59:25;;;;;;;5.50;3.22;;;15.50;99.90;;;;;;5072653;28;20197;-58
2023/07/27 04:01:54;;;;;;;5.03;3.25;;;15.50;99.90;;;;;;5072064;28;20257;-60
2023/07/27 04:04:22;;;;;;;3.63;3.38;;;15.50;99.90;;;;;;5072558;28;20208;-60
2023/07/27 04:06:52;;;;;;;5.55;3.70;;;15.50;99.90;;;;;;5072244;28;20258;-59
2023/07/27 04:09:20;;;;;;;4.10;3.22;;;15.50;99.90;;;;;;5072303;28;20733;-59
2023/07/27 04:11:48;;;;;;;4.15;3.22;;;15.50;99.90;;;;;;5072043;28;20308;-60
2023/07/27 04:14:16;;;;;;;9.10;3.60;;;15.50;99.90;;;;;;5072143;28;20254;-59
2023/07/27 04:16:44;;;;;;;4.28;3.60;;;15.60;99.90;;;;;;5071759;28;20274;-59
2023/07/27 04:19:12;;;;;;;4.10;3.50;;;15.60;99.90;;;;;;5072110;28;20660;-61
2023/07/27 04:21:40;;;;;;;6.35;3.60;;;15.70;99.90;;;;;;5071997;28;20253;-59
2023/07/27 04:24:09;;;;;;;7.40;3.67;;;15.60;99.90;;;;;;5072107;28;20224;-59
2023/07/27 04:26:37;;;;;;;5.65;3.53;;;15.60;99.90;;;;;;5072395;28;20205;-59
2023/07/27 04:29:05;;;;;;;4.85;3.97;;;15.60;99.90;;;;;;5075111;28;20209;-59
2023/07/27 04:31:33;;;;;;;3.78;3.45;;;15.60;99.90;;;;;;5071528;28;20217;-60
2023/07/27 04:34:01;;;;;;;6.07;3.50;;;15.60;99.90;;;;;;5071874;28;20637;-59
2023/07/27 04:36:29;;;;;;;9.95;3.63;;;15.60;99.90;;;;;;5070926;28;20744;-60
2023/07/27 04:38:57;;;;;;;10.32;3.85;;;15.60;99.90;;;;;;5077685;28;20213;-60
2023/07/27 04:41:26;;;;;;;8.40;3.80;;;15.60;99.90;;;;;;5070705;28;20264;-60
2023/07/27 04:43:57;;;;;;;8.20;4.15;;;15.70;99.90;;;;;;5071361;28;20287;-59
2023/07/27 04:46:25;;;;;;;7.38;3.97;;;15.70;99.90;;;;;;5071168;28;21910;-61
2023/07/27 04:48:53;;;;;;;5.10;3.38;;;15.70;99.90;;;;;;5072761;28;20286;-59
2023/07/27 04:51:21;;;;;;;4.32;3.92;;;15.70;99.90;;;;;;5071386;28;20253;-58
2023/07/27 04:53:49;;;;;;;6.25;3.65;;;15.70;99.90;;;;;;5071561;28;20231;-60
2023/07/27 04:56:17;;;;;;;4.45;3.47;;;15.80;99.90;;;;;;5071085;28;20201;-58
2023/07/27 04:58:46;;;;;;;4.82;3.30;;;15.80;99.90;;;;;;5071555;28;20793;-59
2023/07/27 05:01:14;;;;;;;6.10;4.20;;;15.80;99.90;;;;;;5071403;28;20316;-60
2023/07/27 05:03:42;;;;;;;6.03;3.58;;;15.80;99.90;;;;;;5071518;28;20221;-59
2023/07/27 05:06:10;;;;;;;9.77;4.03;;;15.80;99.90;;;;;;5071100;28;20632;-60
2023/07/27 05:08:38;;;;;;;5.40;3.60;;;15.80;99.90;;;;;;5071238;28;20579;-61
2023/07/27 05:11:06;;;;;;;5.70;3.45;;;15.80;99.90;;;;;;5071446;28;20602;-59
2023/07/27 05:13:34;;;;;;;3.80;3.40;;;15.90;99.90;;;;;;5071690;28;20197;-59
2023/07/27 05:16:03;;;;;;;10.20;3.85;;;15.90;99.90;;;;;;5071245;28;20229;-60
2023/07/27 05:18:31;;;;;;;6.70;4.10;;;15.90;99.90;;;;;;5071370;28;20262;-58
2023/07/27 05:20:59;;;;;;;5.40;4.13;;;16.00;99.90;;;;;;5071081;28;20789;-60
2023/07/27 05:23:27;;;;;;;5.25;3.78;;;16.00;99.90;;;;;;5071021;28;20616;-60
2023/07/27 05:25:55;;;;;;;4.55;3.75;;;16.00;99.90;;;;;;5070152;28;20193;-59
2023/07/27 05:28:23;;;;;;;5.25;4.28;;;16.00;99.90;;;;;;5071246;28;20308;-59
2023/07/27 05:30:51;;;;;;;6.85;3.65;;;16.00;99.90;;;;;;5071102;28;20279;-61
2023/07/27 05:33:21;;;;;;;5.28;3.63;;;16.10;99.90;;;;;;5071232;28;20244;-63
2023/07/27 05:35:49;;;;;;;6.43;3.97;;;16.10;99.90;;;;;;5071044;28;20640;-62
2023/07/27 05:38:17;;;;;;;4.97;4.32;;;16.10;99.90;;;;;;5071452;28;20243;-61
2023/07/27 05:40:45;;;;;;;4.93;4.40;;;16.20;99.90;;;;;;5071432;28;20271;-63
2023/07/27 05:43:13;;;;;;;12.13;4.25;;;16.20;99.90;;;;;;5071063;28;20221;-63
2023/07/27 05:45:41;;;;;;;7.97;3.75;;;16.30;99.90;;;;;;5071427;28;20247;-63
2023/07/27 05:48:09;;;;;;;5.78;3.92;;;16.30;99.90;;;;;;5070867;28;20228;-62
2023/07/27 05:50:38;;;;;;;6.65;4.25;;;16.40;99.90;;;;;;5072317;28;20217;-63
2023/07/27 05:53:06;;;;;;;4.47;4.07;;;16.40;99.90;;;;;;5071357;28;20288;-62
2023/07/27 05:55:34;;;;;;;5.00;4.25;;;16.40;99.90;;;;;;5070907;28;20197;-63
2023/07/27 05:58:02;;;;;;;6.10;4.22;;;16.40;99.90;;;;;;5074192;28;20197;-63
2023/07/27 06:00:45;;;;;;;6.72;3.65;;;16.50;99.90;;;;;;5074448;28;20270;-63
2023/07/27 06:03:13;;;;;;;6.88;3.80;;;16.50;99.90;;;;;;5074827;28;20718;-62
2023/07/27 06:05:46;;;;;;;9.80;4.68;;;16.50;99.90;;;;;;5074685;28;20209;-62
2023/07/27 06:08:13;;;;;;;6.35;3.97;;;16.50;99.90;;;;;;5074709;28;20204;-61
2023/07/27 06:10:41;;;;;;;6.95;4.38;;;16.60;99.90;;;;;;5075021;28;20267;-63
2023/07/27 06:13:09;;;;;;;7.28;4.55;;;16.50;99.90;;;;;;5074208;28;20577;-62
2023/07/27 06:15:37;;;;;;;4.70;4.10;;;16.50;99.90;;;;;;5074272;28;20979;-62
2023/07/27 06:18:05;;;;;;;14.02;4.78;;;16.50;99.90;;;;;;5074416;28;20247;-62
2023/07/27 06:20:35;;;;;;;11.38;4.53;;;16.50;99.90;;;;;;5074485;28;20225;-62
2023/07/27 06:23:04;;;;;;;5.40;4.22;;;16.50;99.90;;;;;;5074368;28;20304;-61
2023/07/27 06:25:32;;;;;;;6.78;4.70;;;16.50;99.90;;;;;;5074146;28;20700;-61
2023/07/27 06:28:00;;;;;;;6.25;4.05;;;16.50;99.90;;;;;;5074202;28;20646;-62
2023/07/27 06:30:28;;;;;;;4.20;3.90;;;16.40;99.90;;;;;;5074373;28;20248;-61
2023/07/27 06:32:56;;;;;;;8.43;3.90;;;16.40;99.90;;;;;;5073929;28;20225;-63
2023/07/27 06:35:24;;;;;;;8.52;4.22;;;16.40;99.90;;;;;;5073860;28;20197;-62
2023/07/27 06:37:52;;;;;;;5.18;4.55;;;16.40;99.90;;;;;;5073605;28;20229;-61
2023/07/27 06:40:22;;;;;;;5.07;4.35;;;16.40;99.90;;;;;;5072114;28;20284;-61
2023/07/27 06:42:50;;;;;;;8.38;4.32;;;16.40;99.90;;;;;;5074287;28;20329;-61
2023/07/27 06:45:17;;;;;;;6.68;4.47;;;16.30;99.90;;;;;;5073950;28;20240;-63
2023/07/27 06:47:45;;;;;;;7.20;4.60;;;16.30;99.90;;;;;;5073785;28;20632;-61
2023/07/27 06:50:14;;;;;;;7.35;4.93;;;16.30;99.90;;;;;;5073927;28;20558;-62
2023/07/27 06:52:41;;;;;;;8.18;4.85;;;16.40;99.90;;;;;;5074000;28;20616;-62
2023/07/27 06:55:10;;;;;;;7.82;4.30;;;16.40;99.90;;;;;;5073264;28;20289;-62
2023/07/27 06:57:39;;;;;;;9.60;4.88;;;16.40;99.90;;;;;;5073736;28;20197;-63
2023/07/27 07:00:08;;;;;;;9.73;4.65;;;16.40;99.90;;;;;;5073721;28;20304;-63
2023/07/27 07:02:36;;;;;;;6.32;4.05;;;16.40;99.90;;;;;;5073736;28;20205;-62
2023/07/27 07:05:05;;;;;;;7.45;4.88;;;16.40;99.90;;;;;;5073682;28;20212;-62
2023/07/27 07:07:33;;;;;;;9.07;5.10;;;16.40;99.90;;;;;;5073362;28;20201;-63
2023/07/27 07:10:01;;;;;;;7.97;4.93;;;16.50;99.90;;;;;;5073631;28;20201;-62
2023/07/27 07:12:29;;;;;;;10.85;4.82;;;16.40;99.90;;;;;;5073762;28;20288;-62
2023/07/27 07:14:58;;;;;;;6.13;5.10;;;16.50;99.90;;;;;;5073219;28;20242;-63
2023/07/27 07:17:26;;;;;;;8.70;5.22;;;16.50;99.90;;;;;;5073349;28;20636;-61
2023/07/27 07:19:54;;;;;;;8.50;4.90;;;16.50;99.90;;;;;;5060431;28;20201;-61
2023/07/27 07:22:22;;;;;;;5.20;4.68;;;16.50;99.90;;;;;;5073481;28;20280;-62
2023/07/27 07:24:50;;;;;;;8.32;4.97;;;16.40;99.90;;;;;;5073263;28;20224;-62
2023/07/27 07:27:18;;;;;;;9.57;5.38;;;16.40;99.90;;;;;;5073342;28;20212;-62
2023/07/27 07:29:46;;;;;;;12.68;5.57;;;16.40;99.90;;;;;;5073340;28;20228;-61
2023/07/27 07:32:16;;;;;;;6.47;5.22;;;16.40;99.90;;;;;;5073065;28;20323;-62
2023/07/27 07:34:44;;;;;;;7.72;5.65;;;16.30;99.90;;;;;;5072715;28;20951;-61
2023/07/27 07:37:11;;;;;;;8.80;6.03;;;16.30;99.90;;;;;;5073164;28;20205;-63
2023/07/27 07:39:39;;;;;;;9.52;5.97;;;16.30;99.90;;;;;;5073253;28;20262;-63
2023/07/27 07:42:07;;;;;;;7.68;6.03;;;16.30;99.90;;;;;;5072852;28;20265;-63
2023/07/27 07:44:35;;;;;;;9.45;5.78;;;16.30;99.90;;;;;;5072652;28;20958;-63
2023/07/27 07:47:04;;;;;;;6.82;6.05;;;16.30;99.90;;;;;;5071341;28;20291;-62
2023/07/27 07:49:33;;;;;;;5.78;5.22;;;16.20;99.90;;;;;;5073123;28;20201;-62
2023/07/27 07:52:01;;;;;;;10.70;6.47;;;16.20;99.90;;;;;;5072663;28;20263;-61
2023/07/27 07:54:29;;;;;;;10.52;5.88;;;16.30;99.90;;;;;;5072633;28;20509;-61
2023/07/27 07:56:57;;;;;;;8.02;4.43;;;16.30;99.90;;;;;;5072355;28;20241;-62
2023/07/27 07:59:25;;;;;;;6.40;3.10;;;16.30;99.90;;;;;;5072464;28;20600;-63
2023/07/27 08:01:53;;;;;;;5.40;3.58;;;16.50;99.90;;;;;;5072277;28;20315;-62
2023/07/27 08:04:21;;;;;;;5.13;3.72;;;16.70;99.90;;;;;;5072504;28;20283;-61
2023/07/27 08:06:50;;;;;;;6.50;4.65;;;17.00;99.90;;;;;;5072243;28;20205;-63
2023/07/27 08:09:18;;;;;;;5.28;4.78;;;17.10;99.90;;;;;;5065945;28;20256;-62
2023/07/27 08:11:46;;;;;;;7.35;4.45;;;17.20;99.90;;;;;;5066487;28;20308;-60
2023/07/27 08:14:14;;;;;;;5.60;5.10;;;17.00;99.90;;;;;;5061786;28;20639;-61
2023/07/27 08:16:42;;;;;;;6.10;5.53;;;16.90;99.90;;;;;;5072151;28;20197;-63
2023/07/27 08:19:10;;;;;;;7.35;5.47;;;16.80;99.90;;;;;;5071381;28;20746;-63
2023/07/27 08:21:38;;;;;;;8.85;5.10;;;16.70;99.90;;;;;;5071954;28;20746;-63
2023/07/27 08:24:08;;;;;;;7.68;5.65;;;16.60;99.90;;;;;;5071737;28;20249;-61
2023/07/27 08:26:36;;;;;;;6.32;4.95;;;16.50;99.90;;;;;;5071686;28;20236;-61
2023/07/27 08:29:04;;;;;;;9.00;5.10;;;16.40;99.90;;;;;;5072159;28;20288;-60
2023/07/27 08:31:32;;;;;;;8.23;5.65;;;16.30;99.90;;;;;;5062573;28;20278;-61
2023/07/27 08:34:00;;;;;;;6.00;5.40;;;16.30;99.90;;;;;;5063706;28;20293;-61
2023/07/27 08:36:27;;;;;;;6.88;5.63;;;16.30;99.90;;;;;;5063104;28;20288;-61
2023/07/27 08:38:55;;;;;;;7.45;6.22;;;16.30;99.90;;;;;;5071845;28;20208;-62
2023/07/27 08:41:25;;;;;;;6.88;5.70;;;16.20;99.90;;;;;;5086330;22;20229;-61
2023/07/27 08:43:53;;;;;;;8.73;5.95;;;16.20;99.90;;;;;;5071594;28;20216;-63
2023/07/27 08:46:21;;;;;;;8.40;5.43;;;16.20;99.90;;;;;;5071373;28;20676;-62
2023/07/27 08:48:49;;;;;;;6.70;5.35;;;16.20;99.90;;;;;;5071870;28;20205;-62
2023/07/27 08:51:17;;;;;;;7.20;5.30;;;16.20;99.90;;;;;;5071407;28;20221;-62
2023/07/27 08:53:46;;;;;;;7.43;5.03;;;16.10;99.90;;;;;;5071507;28;20208;-62
2023/07/27 08:56:13;;;;;;;6.38;5.28;;;16.10;99.90;;;;;;5070174;28;20239;-61
2023/07/27 08:58:43;;;;;;;5.43;4.95;;;16.10;99.90;;;;;;5071781;28;20239;-62
2023/07/27 09:01:11;;;;;;;9.30;5.25;;;16.10;99.90;;;;;;5071393;28;20224;-62
2023/07/27 09:03:42;;;;;;;7.65;5.30;;;16.10;99.90;;;;;;5071439;28;20201;-61
2023/07/27 09:06:10;;;;;;;7.68;5.57;;;16.10;99.90;;;;;;5071123;28;20664;-62
2023/07/27 09:08:38;;;;;;;7.15;5.10;;;16.10;99.90;;;;;;5071750;28;20251;-61
2023/07/27 09:11:06;;;;;;;11.07;5.43;;;16.10;99.90;;;;;;5071574;28;20315;-62
2023/07/27 09:13:34;;;;;;;8.13;5.72;;;16.10;99.90;;;;;;5071626;28;20193;-61
2023/07/27 09:16:05;;;;;;;7.97;5.63;;;16.10;99.90;;;;;;5071346;28;20861;-61
2023/07/27 09:18:35;;;;;;;6.68;4.97;;;16.10;99.90;;;;;;5071193;28;20604;-61
2023/07/27 09:21:07;;;;;;;7.90;5.63;;;16.10;99.90;;;;;;5071457;28;20755;-62
2023/07/27 09:23:36;;;;;;;5.38;4.85;;;16.20;99.90;;;;;;5071557;28;20197;-62
2023/07/27 09:26:05;;;;;;;7.72;5.80;;;16.20;99.90;;;;;;5070873;28;20221;-62
2023/07/27 09:28:34;;;;;;;7.68;5.25;;;16.20;99.90;;;;;;5071752;28;20216;-62
2023/07/27 09:31:03;;;;;;;8.85;4.78;;;16.30;99.90;;;;;;5073307;28;20282;-61
2023/07/27 09:33:31;;;;;;;6.90;4.35;;;16.30;99.90;;;;;;5058870;28;20792;-62
2023/07/27 09:36:01;;;;;;;5.20;4.43;;;16.30;99.90;;;;;;5074832;28;20204;-61
2023/07/27 09:38:29;;;;;;;4.80;4.07;;;16.30;99.90;;;;;;5076927;28;20212;-62
2023/07/27 09:40:57;;;;;;;7.35;4.50;;;16.40;99.90;;;;;;5093238;28;20612;-62
2023/07/27 09:43:25;;;;;;;5.38;4.53;;;16.50;99.90;;;;;;5074014;28;20208;-62
2023/07/27 09:45:58;;;;;;;3.72;3.40;;;16.60;99.90;;;;;;5074635;28;20346;-61
2023/07/27 09:48:28;;;;;;;7.80;4.15;;;16.60;99.90;;;;;;5075260;28;20232;-61
2023/07/27 09:50:58;;;;;;;5.32;3.90;;;16.60;99.90;;;;;;5075246;28;20225;-61
2023/07/27 09:53:28;;;;;;;5.03;4.05;;;16.60;99.90;;;;;;5074905;28;20276;-60
2023/07/27 09:55:56;;;;;;;3.45;3.25;;;16.60;99.90;;;;;;5074692;28;20259;-60
2023/07/27 09:58:24;;;;;;;6.43;4.03;;;16.60;99.90;;;;;;5074663;28;20205;-61
2023/07/27 10:00:52;;;;;;;5.75;4.18;;;16.70;99.90;;;;;;5074904;28;20216;-61
2023/07/27 10:03:20;;;;;;;3.38;3.08;;;16.70;99.90;;;;;;5074664;28;20236;-59
2023/07/27 10:05:49;;;;;;;6.70;3.78;;;16.70;99.90;;;;;;5073682;28;20715;-60
2023/07/27 10:08:17;;;;;;;6.88;3.60;;;16.70;99.90;;;;;;5073402;28;20204;-61
2023/07/27 10:10:46;;;;;;;3.53;3.17;;;16.70;99.90;;;;;;5074440;28;20221;-60
2023/07/27 10:13:31;;;;;;;5.13;3.30;;;16.70;99.90;;;;;;5074384;28;20624;-60
2023/07/27 10:16:01;;;;;;;6.22;3.50;;;16.70;99.90;;;;;;5074841;28;20236;-60
2023/07/27 10:18:31;;;;;;;5.05;3.55;;;16.70;99.90;;;;;;5074532;28;20201;-61
2023/07/27 10:21:21;;;;;;;4.63;3.58;;;16.70;99.90;;;;;;5074394;28;20221;-60
2023/07/27 10:23:53;;;;;;;3.40;3.20;;;16.70;99.90;;;;;;5060995;28;20281;-61
2023/07/27 10:26:21;;;;;;;4.53;3.20;;;16.70;99.90;;;;;;5074036;28;20664;-60
2023/07/27 10:28:49;;;;;;;5.65;3.60;;;16.70;99.90;;;;;;5074183;28;20228;-60
2023/07/27 10:31:23;;;;;;;7.63;3.40;;;16.80;99.90;;;;;;5074021;28;20244;-61
2023/07/27 10:33:56;;;;;;;6.10;3.40;;;16.70;99.90;;;;;;5074171;28;20193;-59
2023/07/27 10:36:53;;;;;;;4.00;3.28;;;16.70;99.90;;;;;;5073920;28;20197;-60
2023/07/27 10:39:25;;;;;;;4.03;3.75;;;16.70;99.90;;;;;;5074078;28;20212;-60
2023/07/27 10:42:01;;;;;;;4.65;3.35;;;16.80;99.90;;;;;;5073084;28;20221;-60
2023/07/27 10:44:30;;;;;;;4.85;3.85;;;16.70;99.90;;;;;;5074070;28;20332;-60
2023/07/27 10:46:58;;;;;;;7.13;3.95;;;16.70;99.90;;;;;;5071820;28;20240;-60
2023/07/27 10:49:26;;;;;;;6.07;4.05;;;16.70;99.90;;;;;;5073589;28;20254;-59
2023/07/27 10:51:56;;;;;;;7.43;4.45;;;16.80;99.90;;;;;;5073355;28;20239;-61
2023/07/27 10:54:25;;;;;;;4.47;4.07;;;16.80;99.90;;;;;;5085023;28;20208;-62
2023/07/27 10:56:53;;;;;;;4.43;4.07;;;16.80;99.90;;;;;;5073759;28;20209;-62
2023/07/27 10:59:22;;;;;;;6.07;4.18;;;16.80;99.90;;;;;;5073956;28;20287;-61
2023/07/27 11:01:50;;;;;;;4.63;4.22;;;16.80;99.90;;;;;;5085998;28;20296;-62
2023/07/27 11:04:18;;;;;;;8.20;4.68;;;16.80;99.90;;;;;;5068977;28;20209;-62
2023/07/27 11:06:47;;;;;;;4.13;3.72;;;16.80;99.90;;;;;;5080276;28;20277;-60
2023/07/27 11:09:16;;;;;;;5.43;4.38;;;16.90;99.90;;;;;;5077121;28;20905;-61
2023/07/27 11:11:44;;;;;;;5.18;4.50;;;16.90;99.90;;;;;;5072948;28;20263;-61
2023/07/27 11:14:12;;;;;;;5.10;4.28;;;16.90;99.90;;;;;;5072302;28;20200;-61
2023/07/27 11:16:40;;;;;;;8.15;4.68;;;16.90;99.90;;;;;;5073557;28;20228;-61
2023/07/27 11:19:09;;;;;;;6.00;4.63;;;16.90;99.90;;;;;;5076662;28;20248;-60
2023/07/27 11:21:39;;;;;;;5.35;4.32;;;16.90;99.90;;;;;;5068412;28;20321;-60
2023/07/27 11:24:08;;;;;;;5.40;4.75;;;16.80;99.90;;;;;;5081774;28;20628;-60
2023/07/27 11:26:38;;;;;;;8.23;4.70;;;16.80;99.90;;;;;;5073045;28;20256;-62
2023/07/27 11:29:06;;;;;;;5.32;4.82;;;16.70;99.90;;;;;;5076157;28;20274;-61
2023/07/27 11:31:34;;;;;;;7.68;4.82;;;16.80;99.90;;;;;;5074378;28;20252;-60
2023/07/27 11:34:03;;;;;;;6.07;5.22;;;16.80;99.90;;;;;;5079648;28;20227;-62
2023/07/27 11:36:31;;;;;;;4.93;4.53;;;16.80;99.90;;;;;;5085190;28;20715;-63
2023/07/27 11:39:00;;;;;;;5.22;4.60;;;16.90;99.90;;;;;;5085032;28;20261;-61
2023/07/27 11:41:31;;;;;;;5.97;4.85;;;16.90;99.90;;;;;;5074449;28;20633;-62
2023/07/27 11:44:16;;;;;;;5.18;4.63;;;17.00;99.90;;;;;;5070775;28;20649;-61
2023/07/27 11:46:48;;;;;;;6.28;5.38;;;17.00;99.90;;;;;;5072777;28;20802;-62
2023/07/27 11:49:16;;;;;;;5.60;4.72;;;17.10;99.90;;;;;;5072713;28;20221;-61
2023/07/27 11:51:45;;;;;;;6.28;5.68;;;17.10;99.90;;;;;;5072625;28;20228;-62
2023/07/27 11:54:22;;;;;;;6.70;5.22;;;17.00;99.90;;;;;;5071562;28;20652;-61
2023/07/27 11:56:50;;;;;;;7.45;5.82;;;17.00;99.90;;;;;;5072524;28;20197;-59
2023/07/27 11:59:20;;;;;;;9.27;6.55;;;17.00;99.90;;;;;;5072475;28;20202;-63
2023/07/27 12:01:49;;;;;;;8.93;5.88;;;17.00;99.90;;;;;;5072473;28;20220;-63
2023/07/27 12:04:17;;;;;;;8.10;6.65;;;17.00;99.90;;;;;;5072590;28;20284;-61
2023/07/27 12:06:46;;;;;;;12.57;7.10;;;17.00;99.90;;;;;;5072086;28;20797;-63
2023/07/27 12:09:13;;;;;;;11.38;6.85;;;17.00;99.90;;;;;;5072362;28;20284;-62
2023/07/27 12:11:41;;;;;;;12.63;7.60;;;16.90;99.90;;;;;;5071931;28;20220;-62
2023/07/27 12:14:10;;;;;;;11.23;7.55;;;17.00;99.90;;;;;;5072325;28;20231;-62
2023/07/27 12:16:46;;;;;;;13.30;7.70;;;16.90;99.90;;;;;;5108994;27;20535;-61
2023/07/27 12:19:17;;;;;;;11.30;7.00;;;16.90;99.90;;;;;;5109310;28;20282;-60
2023/07/27 12:21:49;;;;;;;10.10;7.65;;;17.00;99.90;;;;;;5092874;28;20304;-61
2023/07/27 12:24:21;;;;;;;10.15;7.35;;;17.00;99.90;;;;;;5088636;28;20611;-62
2023/07/27 12:26:52;;;;;;;11.80;6.70;;;17.00;99.90;;;;;;5086316;28;20295;-61
2023/07/27 12:29:23;;;;;;;11.20;7.32;;;17.00;99.90;;;;;;5088689;28;20240;-60
2023/07/27 12:31:55;;;;;;;9.10;6.85;;;17.00;99.90;;;;;;5088551;28;20220;-60
2023/07/27 12:34:26;;;;;;;11.13;7.07;;;17.00;99.90;;;;;;5088449;28;20278;-62
2023/07/27 12:36:54;;;;;;;7.32;6.45;;;17.00;99.90;;;;;;5088540;28;20341;-61
2023/07/27 12:39:25;;;;;;;8.75;6.43;;;17.00;99.90;;;;;;5088831;28;20224;-61
2023/07/27 12:41:53;;;;;;;9.38;7.20;;;17.00;99.90;;;;;;5088462;28;20252;-60
2023/07/27 12:44:24;;;;;;;9.68;6.80;;;17.10;99.90;;;;;;5088899;28;20680;-61
2023/07/27 12:46:52;;;;;;;10.63;7.05;;;17.10;99.90;;;;;;5087910;28;20576;-61
2023/07/27 12:49:21;;;;;;;9.23;6.82;;;17.10;99.90;;;;;;5088090;28;20231;-60
2023/07/27 12:51:49;;;;;;;10.20;6.57;;;17.10;99.90;;;;;;5087190;28;20741;-61
2023/07/27 12:54:17;;;;;;;11.32;6.57;;;17.10;99.90;;;;;;5087822;28;20634;-61